sensor_id;sensor_type;location;lat;lon;timestamp;pressure;altitude;pressure_sealevel;temperature;humidity
23363;BME280;11853;48.080;11.960;2023-10-09T00:00:24;95499.97;;;16.19;100.00
23363;BME280;11853;48.080;11.960;2023-10-09T00:03:13;95497.66;;;16.16;100.00
23363;BME280;11853;48.080;11.960;2023-10-09T00:05:39;95500.66;;;16.13;100.00
23363;BME280;11853;48.080;11.960;2023-10-09T00:08:11;95498.19;;;16.12;100.00
23363;BME280;11853;48.080;11.960;2023-10-09T00:10:41;95497.50;;;16.10;100.00
23363;BME280;11853;48.080;11.960;2023-10-09T00:13:26;95486.97;;;16.08;100.00
23363;BME280;11853;48.080;11.960;2023-10-09T00:16:04;95491.66;;;16.06;100.00
23363;BME280;11853;48.080;11.960;2023-10-09T00:18:40;95482.47;;;16.01;100.00
23363;BME280;11853;48.080;11.960;2023-10-09T00:21:19;95481.81;;;15.98;100.00
23363;BME280;11853;48.080;11.960;2023-10-09T00:23:48;95474.94;;;15.96;100.00
23363;BME280;11853;48.080;11.960;2023-10-09T00:26:27;95478.16;;;15.91;100.00
23363;BME280;11853;48.080;11.960;2023-10-09T00:28:55;95472.47;;;15.86;100.00
23363;BME280;11853;48.080;11.960;2023-10-09T00:31:21;95470.13;;;15.83;100.00
23363;BME280;11853;48.080;11.960;2023-10-09T00:33:58;95463.44;;;15.79;100.00
23363;BME280;11853;48.080;11.960;2023-10-09T00:36:30;95457.09;;;15.80;100.00
23363;BME280;11853;48.080;11.960;2023-10-09T00:38:58;95459.09;;;15.78;100.00
23363;BME280;11853;48.080;11.960;2023-10-09T00:41:35;95453.59;;;15.80;100.00
23363;BME280;11853;48.080;11.960;2023-10-09T00:44:01;95449.06;;;15.80;100.00
23363;BME280;11853;48.080;11.960;2023-10-09T00:46:33;95453.06;;;15.84;100.00
23363;BME280;11853;48.080;11.960;2023-10-09T00:49:00;95448.72;;;15.83;100.00
23363;BME280;11853;48.080;11.960;2023-10-09T00:51:28;95443.38;;;15.83;100.00
23363;BME280;11853;48.080;11.960;2023-10-09T00:54:02;95443.38;;;15.83;100.00
23363;BME280;11853;48.080;11.960;2023-10-09T00:56:33;95436.50;;;15.81;100.00
23363;BME280;11853;48.080;11.960;2023-10-09T00:59:08;95433.84;;;15.81;100.00
23363;BME280;11853;48.080;11.960;2023-10-09T01:01:40;95425.00;;;15.80;100.00
23363;BME280;11853;48.080;11.960;2023-10-09T01:04:11;95426.66;;;15.81;100.00
23363;BME280;11853;48.080;11.960;2023-10-09T01:06:47;95430.34;;;15.80;100.00
23363;BME280;11853;48.080;11.960;2023-10-09T01:09:18;95425.31;;;15.77;100.00
23363;BME280;11853;48.080;11.960;2023-10-09T01:11:46;95416.44;;;15.76;100.00
23363;BME280;11853;48.080;11.960;2023-10-09T01:14:33;95417.47;;;15.75;100.00
23363;BME280;11853;48.080;11.960;2023-10-09T01:17:03;95416.63;;;15.75;100.00
23363;BME280;11853;48.080;11.960;2023-10-09T01:19:34;95414.28;;;15.72;100.00
23363;BME280;11853;48.080;11.960;2023-10-09T01:22:00;95411.97;;;15.69;100.00
23363;BME280;11853;48.080;11.960;2023-10-09T01:24:29;95405.91;;;15.67;100.00
23363;BME280;11853;48.080;11.960;2023-10-09T01:26:57;95404.25;;;15.66;100.00
23363;BME280;11853;48.080;11.960;2023-10-09T01:29:24;95400.75;;;15.65;100.00
23363;BME280;11853;48.080;11.960;2023-10-09T01:31:54;95403.41;;;15.65;100.00
23363;BME280;11853;48.080;11.960;2023-10-09T01:34:31;95406.94;;;15.66;100.00
23363;BME280;11853;48.080;11.960;2023-10-09T01:37:07;95409.28;;;15.69;100.00
23363;BME280;11853;48.080;11.960;2023-10-09T01:39:45;95404.25;;;15.66;100.00
23363;BME280;11853;48.080;11.960;2023-10-09T01:42:13;95399.25;;;15.63;100.00
23363;BME280;11853;48.080;11.960;2023-10-09T01:44:49;95396.72;;;15.61;100.00
23363;BME280;11853;48.080;11.960;2023-10-09T01:47:14;95390.53;;;15.61;100.00
23363;BME280;11853;48.080;11.960;2023-10-09T01:49:43;95397.91;;;15.59;100.00
23363;BME280;11853;48.080;11.960;2023-10-09T01:52:10;95392.53;;;15.59;100.00
23363;BME280;11853;48.080;11.960;2023-10-09T01:54:41;95395.22;;;15.59;100.00
23363;BME280;11853;48.080;11.960;2023-10-09T01:57:10;95396.91;;;15.60;100.00
23363;BME280;11853;48.080;11.960;2023-10-09T01:59:38;95388.88;;;15.60;100.00
23363;BME280;11853;48.080;11.960;2023-10-09T02:02:05;95387.38;;;15.57;100.00
23363;BME280;11853;48.080;11.960;2023-10-09T02:04:55;95386.38;;;15.58;100.00
23363;BME280;11853;48.080;11.960;2023-10-09T02:07:33;95376.84;;;15.55;100.00
23363;BME280;11853;48.080;11.960;2023-10-09T02:10:25;95376.84;;;15.55;100.00
23363;BME280;11853;48.080;11.960;2023-10-09T02:13:04;95378.84;;;15.53;100.00
23363;BME280;11853;48.080;11.960;2023-10-09T02:15:34;95371.84;;;15.52;100.00
23363;BME280;11853;48.080;11.960;2023-10-09T02:18:10;95367.84;;;15.48;100.00
23363;BME280;11853;48.080;11.960;2023-10-09T02:20:48;95365.50;;;15.45;100.00
23363;BME280;11853;48.080;11.960;2023-10-09T02:25:57;95368.50;;;15.42;100.00
23363;BME280;11853;48.080;11.960;2023-10-09T02:28:23;95357.97;;;15.41;100.00
23363;BME280;11853;48.080;11.960;2023-10-09T02:30:48;95357.16;;;15.40;100.00
23363;BME280;11853;48.080;11.960;2023-10-09T02:33:15;95356.00;;;15.35;100.00
23363;BME280;11853;48.080;11.960;2023-10-09T02:35:46;95347.78;;;15.36;100.00
23363;BME280;11853;48.080;11.960;2023-10-09T02:38:17;95353.31;;;15.35;100.00
23363;BME280;11853;48.080;11.960;2023-10-09T02:40:43;95350.81;;;15.33;100.00
23363;BME280;11853;48.080;11.960;2023-10-09T02:43:31;95346.28;;;15.33;100.00
23363;BME280;11853;48.080;11.960;2023-10-09T02:46:03;95351.13;;;15.30;100.00
23363;BME280;11853;48.080;11.960;2023-10-09T02:48:39;95336.78;;;15.31;100.00
23363;BME280;11853;48.080;11.960;2023-10-09T02:51:11;95345.13;;;15.28;100.00
23363;BME280;11853;48.080;11.960;2023-10-09T02:53:43;95343.31;;;15.28;100.00
23363;BME280;11853;48.080;11.960;2023-10-09T02:56:09;95342.44;;;15.28;100.00
23363;BME280;11853;48.080;11.960;2023-10-09T02:58:39;95340.44;;;15.30;100.00
23363;BME280;11853;48.080;11.960;2023-10-09T03:01:14;95343.13;;;15.30;100.00
23363;BME280;11853;48.080;11.960;2023-10-09T03:03:43;95341.28;;;15.30;100.00
23363;BME280;11853;48.080;11.960;2023-10-09T03:06:14;95343.94;;;15.30;100.00
23363;BME280;11853;48.080;11.960;2023-10-09T03:08:50;95333.25;;;15.30;100.00
23363;BME280;11853;48.080;11.960;2023-10-09T03:11:16;95331.75;;;15.28;100.00
23363;BME280;11853;48.080;11.960;2023-10-09T03:13:42;95323.09;;;15.26;100.00
23363;BME280;11853;48.080;11.960;2023-10-09T03:16:10;95325.28;;;15.22;100.00
23363;BME280;11853;48.080;11.960;2023-10-09T03:18:53;95311.06;;;15.22;100.00
23363;BME280;11853;48.080;11.960;2023-10-09T03:21:19;95314.59;;;15.22;100.00
23363;BME280;11853;48.080;11.960;2023-10-09T03:23:48;95307.53;;;15.21;100.00
23363;BME280;11853;48.080;11.960;2023-10-09T03:26:17;95309.41;;;15.21;100.00
23363;BME280;11853;48.080;11.960;2023-10-09T03:28:47;95306.88;;;15.19;100.00
23363;BME280;11853;48.080;11.960;2023-10-09T03:31:12;95304.19;;;15.19;100.00
23363;BME280;11853;48.080;11.960;2023-10-09T03:33:39;95297.88;;;15.20;100.00
23363;BME280;11853;48.080;11.960;2023-10-09T03:36:05;95303.56;;;15.17;100.00
23363;BME280;11853;48.080;11.960;2023-10-09T03:38:40;95301.38;;;15.13;100.00
23363;BME280;11853;48.080;11.960;2023-10-09T03:41:06;95293.56;;;15.11;100.00
23363;BME280;11853;48.080;11.960;2023-10-09T03:43:33;95296.56;;;15.08;100.00
23363;BME280;11853;48.080;11.960;2023-10-09T03:46:05;95299.38;;;15.06;99.73
23363;BME280;11853;48.080;11.960;2023-10-09T03:48:39;95296.03;;;15.04;100.00
23363;BME280;11853;48.080;11.960;2023-10-09T03:51:09;95290.06;;;15.02;100.00
23363;BME280;11853;48.080;11.960;2023-10-09T03:53:35;95294.38;;;15.03;99.88
23363;BME280;11853;48.080;11.960;2023-10-09T03:56:03;95285.53;;;15.03;99.84
23363;BME280;11853;48.080;11.960;2023-10-09T03:58:41;95283.69;;;15.03;98.94
23363;BME280;11853;48.080;11.960;2023-10-09T04:01:12;95282.69;;;15.04;98.19
23363;BME280;11853;48.080;11.960;2023-10-09T04:03:48;95284.38;;;15.05;96.99
23363;BME280;11853;48.080;11.960;2023-10-09T04:06:13;95286.03;;;15.06;96.62
23363;BME280;11853;48.080;11.960;2023-10-09T04:08:43;95284.03;;;15.08;95.58
23363;BME280;11853;48.080;11.960;2023-10-09T04:11:14;95291.03;;;15.09;95.60
23363;BME280;11853;48.080;11.960;2023-10-09T04:13:45;95279.31;;;15.10;94.45
23363;BME280;11853;48.080;11.960;2023-10-09T04:16:12;95282.00;;;15.10;94.83
23363;BME280;11853;48.080;11.960;2023-10-09T04:18:59;95284.53;;;15.12;95.03
23363;BME280;11853;48.080;11.960;2023-10-09T04:21:31;95281.16;;;15.10;95.13
23363;BME280;11853;48.080;11.960;2023-10-09T04:24:08;95277.16;;;15.14;95.01
23363;BME280;11853;48.080;11.960;2023-10-09T04:26:40;95281.34;;;15.17;95.02
23363;BME280;11853;48.080;11.960;2023-10-09T04:29:12;95281.50;;;15.15;95.39
23363;BME280;11853;48.080;11.960;2023-10-09T04:31:52;95271.63;;;15.16;95.22
23363;BME280;11853;48.080;11.960;2023-10-09T04:34:19;95275.81;;;15.18;93.95
23363;BME280;11853;48.080;11.960;2023-10-09T04:36:48;95276.66;;;15.19;92.55
23363;BME280;11853;48.080;11.960;2023-10-09T04:39:22;95278.63;;;15.25;91.94
23363;BME280;11853;48.080;11.960;2023-10-09T04:41:57;95277.97;;;15.31;91.49
23363;BME280;11853;48.080;11.960;2023-10-09T04:44:42;95277.63;;;15.34;90.95
23363;BME280;11853;48.080;11.960;2023-10-09T04:47:33;95268.56;;;15.43;90.17
23363;BME280;11853;48.080;11.960;2023-10-09T04:50:06;95268.91;;;15.48;89.07
23363;BME280;11853;48.080;11.960;2023-10-09T04:52:33;95277.22;;;15.53;88.71
23363;BME280;11853;48.080;11.960;2023-10-09T04:54:59;95271.69;;;15.55;88.33
23363;BME280;11853;48.080;11.960;2023-10-09T05:00:15;95273.53;;;15.63;87.89
23363;BME280;11853;48.080;11.960;2023-10-09T05:02:50;95266.13;;;15.65;87.62
23363;BME280;11853;48.080;11.960;2023-10-09T05:05:25;95275.53;;;15.69;86.81
23363;BME280;11853;48.080;11.960;2023-10-09T05:08:13;95276.34;;;15.69;86.40
23363;BME280;11853;48.080;11.960;2023-10-09T05:10:45;95282.53;;;15.70;86.71
23363;BME280;11853;48.080;11.960;2023-10-09T05:13:41;95286.91;;;15.71;86.19
23363;BME280;11853;48.080;11.960;2023-10-09T05:16:13;95289.38;;;15.72;86.20
23363;BME280;11853;48.080;11.960;2023-10-09T05:18:44;95285.41;;;15.68;86.39
23363;BME280;11853;48.080;11.960;2023-10-09T05:21:22;95290.41;;;15.71;85.99
23363;BME280;11853;48.080;11.960;2023-10-09T05:23:59;95284.22;;;15.71;86.18
23363;BME280;11853;48.080;11.960;2023-10-09T05:26:46;95288.38;;;15.73;86.47
23363;BME280;11853;48.080;11.960;2023-10-09T05:29:25;95296.22;;;15.75;86.19
23363;BME280;11853;48.080;11.960;2023-10-09T05:31:54;95302.41;;;15.75;86.40
23363;BME280;11853;48.080;11.960;2023-10-09T05:34:29;95312.78;;;15.79;86.32
23363;BME280;11853;48.080;11.960;2023-10-09T05:37:13;95304.59;;;15.80;85.97
23363;BME280;11853;48.080;11.960;2023-10-09T05:39:51;95311.59;;;15.81;86.32
23363;BME280;11853;48.080;11.960;2023-10-09T05:42:44;95317.59;;;15.83;86.54
23363;BME280;11853;48.080;11.960;2023-10-09T05:45:14;95317.78;;;15.82;86.66
23363;BME280;11853;48.080;11.960;2023-10-09T05:47:47;95313.91;;;15.84;86.76
23363;BME280;11853;48.080;11.960;2023-10-09T05:50:26;95318.44;;;15.84;86.61
23363;BME280;11853;48.080;11.960;2023-10-09T05:52:52;95312.94;;;15.85;86.46
23363;BME280;11853;48.080;11.960;2023-10-09T05:55:19;95321.25;;;15.90;86.08
23363;BME280;11853;48.080;11.960;2023-10-09T05:58:04;95314.56;;;15.94;85.90
23363;BME280;11853;48.080;11.960;2023-10-09T06:00:58;95310.69;;;15.97;85.95
23363;BME280;11853;48.080;11.960;2023-10-09T06:03:43;95311.84;;;16.03;85.31
23363;BME280;11853;48.080;11.960;2023-10-09T06:06:17;95310.25;;;16.16;84.86
23363;BME280;11853;48.080;11.960;2023-10-09T06:09:06;95319.69;;;16.35;84.07
23363;BME280;11853;48.080;11.960;2023-10-09T06:11:41;95311.66;;;16.35;83.64
23363;BME280;11853;48.080;11.960;2023-10-09T06:14:16;95313.50;;;16.35;83.28
23363;BME280;11853;48.080;11.960;2023-10-09T06:16:51;95329.72;;;16.33;84.05
23363;BME280;11853;48.080;11.960;2023-10-09T06:19:24;95320.75;;;16.26;84.56
23363;BME280;11853;48.080;11.960;2023-10-09T06:21:56;95322.94;;;16.23;84.49
23363;BME280;11853;48.080;11.960;2023-10-09T06:24:38;95331.00;;;16.23;84.57
23363;BME280;11853;48.080;11.960;2023-10-09T06:27:22;95323.13;;;16.21;85.16
23363;BME280;11853;48.080;11.960;2023-10-09T06:30:11;95329.78;;;16.25;85.46
23363;BME280;11853;48.080;11.960;2023-10-09T06:33:00;95327.72;;;16.35;85.12
23363;BME280;11853;48.080;11.960;2023-10-09T06:35:28;95334.47;;;16.54;85.13
23363;BME280;11853;48.080;11.960;2023-10-09T06:37:59;95326.63;;;16.76;84.70
23363;BME280;11853;48.080;11.960;2023-10-09T06:40:37;95328.94;;;17.02;84.11
23363;BME280;11853;48.080;11.960;2023-10-09T06:43:18;95321.38;;;17.58;83.24
23363;BME280;11853;48.080;11.960;2023-10-09T06:45:47;95329.19;;;17.97;80.97
23363;BME280;11853;48.080;11.960;2023-10-09T06:48:25;95324.94;;;18.03;78.98
23363;BME280;11853;48.080;11.960;2023-10-09T06:53:33;95326.03;;;17.94;78.20
23363;BME280;11853;48.080;11.960;2023-10-09T06:56:18;95322.72;;;17.92;78.72
23363;BME280;11853;48.080;11.960;2023-10-09T06:58:56;95331.00;;;17.97;78.26
23363;BME280;11853;48.080;11.960;2023-10-09T07:01:26;95335.53;;;18.11;77.93
23363;BME280;11853;48.080;11.960;2023-10-09T07:04:08;95337.47;;;18.68;77.63
23363;BME280;11853;48.080;11.960;2023-10-09T07:06:52;95334.38;;;19.36;75.05
23363;BME280;11853;48.080;11.960;2023-10-09T07:09:18;95333.47;;;19.78;72.30
23363;BME280;11853;48.080;11.960;2023-10-09T07:14:18;95342.50;;;19.99;69.00
23363;BME280;11853;48.080;11.960;2023-10-09T07:19:32;95339.75;;;20.27;67.16
23363;BME280;11853;48.080;11.960;2023-10-09T07:22:01;95339.75;;;20.27;67.58
23363;BME280;11853;48.080;11.960;2023-10-09T07:24:32;95332.66;;;20.19;67.49
23363;BME280;11853;48.080;11.960;2023-10-09T07:27:09;95331.78;;;20.12;67.64
23363;BME280;11853;48.080;11.960;2023-10-09T07:29:40;95338.69;;;20.28;68.14
23363;BME280;11853;48.080;11.960;2023-10-09T07:32:15;95343.44;;;20.74;66.56
23363;BME280;11853;48.080;11.960;2023-10-09T07:34:52;95346.28;;;21.54;63.71
23363;BME280;11853;48.080;11.960;2023-10-09T07:37:24;95346.19;;;22.27;60.97
23363;BME280;11853;48.080;11.960;2023-10-09T07:39:58;95345.47;;;22.90;58.65
23363;BME280;11853;48.080;11.960;2023-10-09T07:42:25;95338.81;;;23.49;56.42
23363;BME280;11853;48.080;11.960;2023-10-09T07:45:19;95341.84;;;24.10;54.98
23363;BME280;11853;48.080;11.960;2023-10-09T07:47:48;95337.66;;;24.50;52.22
23363;BME280;11853;48.080;11.960;2023-10-09T07:50:28;95340.31;;;24.87;51.28
23363;BME280;11853;48.080;11.960;2023-10-09T07:53:15;95352.41;;;25.03;50.42
23363;BME280;11853;48.080;11.960;2023-10-09T07:55:44;95346.75;;;25.05;50.22
23363;BME280;11853;48.080;11.960;2023-10-09T07:58:20;95350.16;;;25.30;50.52
23363;BME280;11853;48.080;11.960;2023-10-09T08:00:59;95343.16;;;25.65;50.31
23363;BME280;11853;48.080;11.960;2023-10-09T08:03:36;95354.34;;;25.45;49.30
23363;BME280;11853;48.080;11.960;2023-10-09T08:06:03;95355.38;;;25.02;48.65
23363;BME280;11853;48.080;11.960;2023-10-09T08:08:47;95346.38;;;24.16;49.17
23363;BME280;11853;48.080;11.960;2023-10-09T08:11:31;95352.16;;;23.51;51.87
23363;BME280;11853;48.080;11.960;2023-10-09T08:14:09;95358.69;;;23.11;53.79
23363;BME280;11853;48.080;11.960;2023-10-09T08:16:54;95356.78;;;22.74;55.18
23363;BME280;11853;48.080;11.960;2023-10-09T08:19:40;95365.34;;;22.70;56.06
23363;BME280;11853;48.080;11.960;2023-10-09T08:22:36;95366.50;;;23.26;55.56
23363;BME280;11853;48.080;11.960;2023-10-09T08:25:10;95365.19;;;23.60;54.24
23363;BME280;11853;48.080;11.960;2023-10-09T08:27:58;95375.91;;;23.80;53.23
23363;BME280;11853;48.080;11.960;2023-10-09T08:30:45;95369.50;;;23.68;53.54
23363;BME280;11853;48.080;11.960;2023-10-09T08:33:29;95361.66;;;23.60;54.51
23363;BME280;11853;48.080;11.960;2023-10-09T08:36:07;95364.97;;;23.37;54.61
23363;BME280;11853;48.080;11.960;2023-10-09T08:38:34;95369.50;;;23.18;55.47
23363;BME280;11853;48.080;11.960;2023-10-09T08:41:08;95368.75;;;22.98;55.77
23363;BME280;11853;48.080;11.960;2023-10-09T08:43:52;95373.84;;;22.81;55.76
23363;BME280;11853;48.080;11.960;2023-10-09T08:46:23;95374.75;;;22.61;56.31
23363;BME280;11853;48.080;11.960;2023-10-09T08:48:49;95374.38;;;22.51;57.72
23363;BME280;11853;48.080;11.960;2023-10-09T08:51:17;95379.41;;;22.41;57.86
23363;BME280;11853;48.080;11.960;2023-10-09T08:53:44;95373.41;;;22.25;58.22
23363;BME280;11853;48.080;11.960;2023-10-09T08:56:12;95375.31;;;22.18;59.57
23363;BME280;11853;48.080;11.960;2023-10-09T08:58:41;95377.34;;;22.16;59.29
23363;BME280;11853;48.080;11.960;2023-10-09T09:01:06;95370.72;;;22.05;59.28
23363;BME280;11853;48.080;11.960;2023-10-09T09:03:42;95383.19;;;22.00;59.31
23363;BME280;11853;48.080;11.960;2023-10-09T09:06:10;95385.72;;;21.95;59.82
23363;BME280;11853;48.080;11.960;2023-10-09T09:08:40;95372.59;;;21.92;59.90
23363;BME280;11853;48.080;11.960;2023-10-09T09:11:15;95381.13;;;21.89;59.66
23363;BME280;11853;48.080;11.960;2023-10-09T09:14:00;95383.44;;;21.85;60.22
23363;BME280;11853;48.080;11.960;2023-10-09T09:16:30;95389.06;;;21.84;59.62
23363;BME280;11853;48.080;11.960;2023-10-09T09:19:01;95393.44;;;21.78;59.26
23363;BME280;11853;48.080;11.960;2023-10-09T09:21:34;95399.03;;;21.76;59.21
23363;BME280;11853;48.080;11.960;2023-10-09T09:24:11;95394.47;;;21.70;58.56
23363;BME280;11853;48.080;11.960;2023-10-09T09:27:02;95397.16;;;21.57;58.71
23363;BME280;11853;48.080;11.960;2023-10-09T09:29:44;95398.22;;;21.49;58.35
23363;BME280;11853;48.080;11.960;2023-10-09T09:32:26;95401.34;;;21.46;58.60
23363;BME280;11853;48.080;11.960;2023-10-09T09:34:55;95398.59;;;21.40;59.02
23363;BME280;11853;48.080;11.960;2023-10-09T09:37:27;95388.84;;;21.39;59.85
23363;BME280;11853;48.080;11.960;2023-10-09T09:40:00;95391.13;;;21.35;59.26
23363;BME280;11853;48.080;11.960;2023-10-09T09:42:30;95392.94;;;21.34;59.94
23363;BME280;11853;48.080;11.960;2023-10-09T09:45:00;95395.06;;;21.32;60.34
23363;BME280;11853;48.080;11.960;2023-10-09T09:47:27;95389.66;;;21.32;59.92
23363;BME280;11853;48.080;11.960;2023-10-09T09:49:54;95387.97;;;21.31;59.79
23363;BME280;11853;48.080;11.960;2023-10-09T09:52:34;95386.94;;;21.32;59.41
23363;BME280;11853;48.080;11.960;2023-10-09T09:55:08;95388.59;;;21.33;59.59
23363;BME280;11853;48.080;11.960;2023-10-09T09:57:44;95385.91;;;21.33;60.38
23363;BME280;11853;48.080;11.960;2023-10-09T10:00:19;95395.31;;;21.38;59.86
23363;BME280;11853;48.080;11.960;2023-10-09T10:05:48;95390.09;;;21.43;59.98
23363;BME280;11853;48.080;11.960;2023-10-09T10:08:20;95404.84;;;21.47;59.83
23363;BME280;11853;48.080;11.960;2023-10-09T10:10:47;95411.09;;;21.47;59.85
23363;BME280;11853;48.080;11.960;2023-10-09T10:13:15;95401.34;;;21.46;60.25
23363;BME280;11853;48.080;11.960;2023-10-09T10:15:59;95406.50;;;21.48;59.51
23363;BME280;11853;48.080;11.960;2023-10-09T10:18:33;95397.34;;;21.49;59.73
23363;BME280;11853;48.080;11.960;2023-10-09T10:21:14;95387.19;;;21.51;60.64
23363;BME280;11853;48.080;11.960;2023-10-09T10:23:44;95389.06;;;21.57;60.30
23363;BME280;11853;48.080;11.960;2023-10-09T10:26:17;95393.84;;;21.62;60.21
23363;BME280;11853;48.080;11.960;2023-10-09T10:28:43;95390.91;;;21.63;60.23
23363;BME280;11853;48.080;11.960;2023-10-09T10:31:11;95386.97;;;21.66;58.08
23363;BME280;11853;48.080;11.960;2023-10-09T10:36:24;95391.13;;;21.68;58.62
23363;BME280;11853;48.080;11.960;2023-10-09T10:39:08;95390.13;;;21.69;57.54
23363;BME280;11853;48.080;11.960;2023-10-09T10:41:57;95390.31;;;21.68;57.61
23363;BME280;11853;48.080;11.960;2023-10-09T10:44:32;95388.44;;;21.68;57.21
23363;BME280;11853;48.080;11.960;2023-10-09T10:47:11;95387.41;;;21.69;56.39
23363;BME280;11853;48.080;11.960;2023-10-09T10:49:58;95389.06;;;21.70;57.40
23363;BME280;11853;48.080;11.960;2023-10-09T10:52:25;95388.66;;;21.73;55.57
23363;BME280;11853;48.080;11.960;2023-10-09T10:55:17;95390.72;;;21.71;57.04
23363;BME280;11853;48.080;11.960;2023-10-09T10:57:44;95382.00;;;21.76;55.96
23363;BME280;11853;48.080;11.960;2023-10-09T11:00:19;95382.19;;;21.74;56.79
23363;BME280;11853;48.080;11.960;2023-10-09T11:03:03;95377.84;;;21.73;55.79
23363;BME280;11853;48.080;11.960;2023-10-09T11:05:55;95367.47;;;21.70;56.55
23363;BME280;11853;48.080;11.960;2023-10-09T11:08:24;95372.84;;;21.70;56.48
23363;BME280;11853;48.080;11.960;2023-10-09T11:10:52;95378.25;;;21.70;57.14
23363;BME280;11853;48.080;11.960;2023-10-09T11:13:23;95382.84;;;21.70;56.12
23363;BME280;11853;48.080;11.960;2023-10-09T11:16:00;95380.34;;;21.68;55.04
23363;BME280;11853;48.080;11.960;2023-10-09T11:18:54;95371.81;;;21.65;54.75
23363;BME280;11853;48.080;11.960;2023-10-09T11:21:23;95377.22;;;21.65;54.08
23363;BME280;11853;48.080;11.960;2023-10-09T11:23:57;95372.03;;;21.76;53.83
23363;BME280;11853;48.080;11.960;2023-10-09T11:26:25;95365.75;;;21.96;55.43
23363;BME280;11853;48.080;11.960;2023-10-09T11:29:09;95365.31;;;22.05;53.37
23363;BME280;11853;48.080;11.960;2023-10-09T11:31:59;95371.97;;;22.30;54.17
23363;BME280;11853;48.080;11.960;2023-10-09T11:34:29;95365.03;;;22.47;52.88
23363;BME280;11853;48.080;11.960;2023-10-09T11:37:14;95366.44;;;22.56;50.93
23363;BME280;11853;48.080;11.960;2023-10-09T11:39:58;95369.75;;;22.65;51.69
23363;BME280;11853;48.080;11.960;2023-10-09T11:42:27;95363.84;;;22.75;51.40
23363;BME280;11853;48.080;11.960;2023-10-09T11:45:22;95370.28;;;22.80;51.36
23363;BME280;11853;48.080;11.960;2023-10-09T11:47:58;95356.34;;;22.77;51.80
23363;BME280;11853;48.080;11.960;2023-10-09T11:50:47;95362.44;;;22.72;51.56
23363;BME280;11853;48.080;11.960;2023-10-09T11:53:44;95363.94;;;22.61;52.24
23363;BME280;11853;48.080;11.960;2023-10-09T11:56:16;95352.28;;;22.54;50.50
23363;BME280;11853;48.080;11.960;2023-10-09T11:58:49;95352.34;;;22.47;50.59
23363;BME280;11853;48.080;11.960;2023-10-09T12:01:19;95352.38;;;22.41;50.45
23363;BME280;11853;48.080;11.960;2023-10-09T12:03:49;95343.03;;;22.30;49.72
23363;BME280;11853;48.080;11.960;2023-10-09T12:06:16;95352.84;;;22.24;48.83
23363;BME280;11853;48.080;11.960;2023-10-09T12:08:45;95351.59;;;22.20;49.61
23363;BME280;11853;48.080;11.960;2023-10-09T12:11:16;95348.25;;;22.12;50.36
23363;BME280;11853;48.080;11.960;2023-10-09T12:13:51;95356.59;;;22.10;50.53
23363;BME280;11853;48.080;11.960;2023-10-09T12:16:22;95349.94;;;22.06;50.84
23363;BME280;11853;48.080;11.960;2023-10-09T12:18:53;95354.09;;;22.02;51.08
23363;BME280;11853;48.080;11.960;2023-10-09T12:21:20;95354.09;;;22.02;51.41
23363;BME280;11853;48.080;11.960;2023-10-09T12:23:45;95351.59;;;22.00;52.20
23363;BME280;11853;48.080;11.960;2023-10-09T12:26:12;95344.94;;;22.03;52.62
23363;BME280;11853;48.080;11.960;2023-10-09T12:28:42;95346.41;;;21.99;51.63
23363;BME280;11853;48.080;11.960;2023-10-09T12:31:16;95341.44;;;21.96;51.84
23363;BME280;11853;48.080;11.960;2023-10-09T12:33:45;95345.41;;;21.93;51.97
23363;BME280;11853;48.080;11.960;2023-10-09T12:36:13;95345.00;;;21.90;52.68
23363;BME280;11853;48.080;11.960;2023-10-09T12:38:49;95340.00;;;21.87;52.28
23363;BME280;11853;48.080;11.960;2023-10-09T12:41:19;95346.25;;;21.80;52.77
23363;BME280;11853;48.080;11.960;2023-10-09T12:43:51;95342.09;;;21.78;52.83
23363;BME280;11853;48.080;11.960;2023-10-09T12:46:18;95354.16;;;21.75;53.45
23363;BME280;11853;48.080;11.960;2023-10-09T12:48:44;95350.81;;;21.73;52.55
23363;BME280;11853;48.080;11.960;2023-10-09T12:51:14;95352.31;;;21.69;51.97
23363;BME280;11853;48.080;11.960;2023-10-09T12:53:43;95352.09;;;21.64;52.42
23363;BME280;11853;48.080;11.960;2023-10-09T12:56:09;95350.41;;;21.63;53.30
23363;BME280;11853;48.080;11.960;2023-10-09T12:58:40;95348.34;;;21.58;53.59
23363;BME280;11853;48.080;11.960;2023-10-09T13:01:18;95353.94;;;21.57;53.67
23363;BME280;11853;48.080;11.960;2023-10-09T13:03:44;95357.06;;;21.54;53.88
23363;BME280;11853;48.080;11.960;2023-10-09T13:06:15;95362.88;;;21.51;54.22
23363;BME280;11853;48.080;11.960;2023-10-09T13:08:41;95356.66;;;21.50;53.60
23363;BME280;11853;48.080;11.960;2023-10-09T13:11:10;95355.63;;;21.45;54.14
23363;BME280;11853;48.080;11.960;2023-10-09T13:13:41;95364.97;;;21.42;54.83
23363;BME280;11853;48.080;11.960;2023-10-09T13:16:21;95363.31;;;21.41;55.22
23363;BME280;11853;48.080;11.960;2023-10-09T13:18:50;95353.94;;;21.37;55.58
23363;BME280;11853;48.080;11.960;2023-10-09T13:21:21;95356.22;;;21.33;54.68
23363;BME280;11853;48.080;11.960;2023-10-09T13:23:46;95354.13;;;21.29;54.37
23363;BME280;11853;48.080;11.960;2023-10-09T13:26:13;95366.59;;;21.23;54.71
23363;BME280;11853;48.080;11.960;2023-10-09T13:28:52;95365.56;;;21.18;56.01
23363;BME280;11853;48.080;11.960;2023-10-09T13:31:19;95367.81;;;21.14;55.66
23363;BME280;11853;48.080;11.960;2023-10-09T13:33:47;95373.63;;;21.11;56.06
23363;BME280;11853;48.080;11.960;2023-10-09T13:36:14;95376.09;;;21.06;56.15
23363;BME280;11853;48.080;11.960;2023-10-09T13:38:54;95373.81;;;21.03;56.56
23363;BME280;11853;48.080;11.960;2023-10-09T13:41:20;95362.41;;;21.01;57.06